Time;durP1;ratioP1;P1;durP2;ratioP2;P2;SDS_P1;SDS_P2;PMS_P1;PMS_P2;Temp;Humidity;BMP_temperature;BMP_pressure;BME280_temperature;BME280_humidity;BME280_pressure;Samples;Min_cycle;Max_cycle;Signal;HPM_P1;HPM_P2
2022/07/05 00:00:18;;;;;;;6.00;2.30;;;19.70;1.00;;;;;;5024143;28;20189;-73
2022/07/05 00:02:44;;;;;;;3.70;2.40;;;19.70;1.00;;;;;;5006971;28;20245;-73
2022/07/05 00:05:10;;;;;;;4.73;2.30;;;19.60;1.00;;;;;;5006021;28;20221;-73
2022/07/05 00:07:35;;;;;;;8.43;2.50;;;19.50;1.00;;;;;;5003752;28;20229;-73
2022/07/05 00:10:01;;;;;;;5.20;2.47;;;19.40;1.00;;;;;;5008711;28;20178;-73
2022/07/05 00:12:31;;;;;;;4.37;2.50;;;19.20;1.00;;;;;;5007567;28;20178;-73
2022/07/05 00:14:58;;;;;;;3.70;2.50;;;19.10;1.00;;;;;;5009944;28;20547;-73
2022/07/05 00:17:24;;;;;;;5.07;2.43;;;18.90;1.00;;;;;;5008284;28;20433;-73
2022/07/05 00:19:49;;;;;;;5.67;2.90;;;18.70;1.00;;;;;;5008343;28;20448;-73
2022/07/05 00:22:15;;;;;;;8.80;2.70;;;18.70;1.00;;;;;;4990975;28;20182;-73
2022/07/05 00:24:40;;;;;;;4.67;2.53;;;18.70;1.00;;;;;;5008722;28;20820;-73
2022/07/05 00:27:06;;;;;;;4.10;2.40;;;18.70;1.00;;;;;;5013815;28;20209;-73
2022/07/05 00:29:31;;;;;;;3.57;2.63;;;18.60;1.00;;;;;;5010857;28;20536;-73
2022/07/05 00:31:57;;;;;;;10.53;2.60;;;18.70;1.00;;;;;;5008563;28;20198;-73
2022/07/05 00:34:23;;;;;;;3.73;2.80;;;18.80;1.00;;;;;;5004442;28;20276;-72
2022/07/05 00:36:49;;;;;;;3.43;2.40;;;18.70;1.00;;;;;;5008612;28;20209;-72
2022/07/05 00:39:15;;;;;;;7.37;2.90;;;18.80;1.00;;;;;;5008851;28;20504;-73
2022/07/05 00:41:40;;;;;;;5.77;2.60;;;18.70;1.00;;;;;;5014764;28;20221;-74
2022/07/05 00:44:09;;;;;;;8.70;2.90;;;18.70;1.00;;;;;;5009103;28;20174;-73
2022/07/05 00:46:36;;;;;;;6.43;2.97;;;18.70;1.00;;;;;;5008797;28;20579;-73
2022/07/05 00:49:02;;;;;;;5.40;2.87;;;18.60;1.00;;;;;;5008666;28;20452;-73
2022/07/05 00:51:32;;;;;;;4.70;2.43;;;18.60;1.00;;;;;;4990210;28;20425;-73
2022/07/05 00:53:59;;;;;;;5.10;3.17;;;18.50;1.00;;;;;;5008834;28;20421;-73
2022/07/05 00:56:25;;;;;;;3.63;2.60;;;18.50;1.00;;;;;;5009686;28;20436;-73
2022/07/05 00:58:51;;;;;;;2.77;2.33;;;18.50;1.00;;;;;;5006205;28;20429;-73
2022/07/05 01:01:17;;;;;;;3.70;2.60;;;18.30;1.00;;;;;;5015458;28;20186;-73
2022/07/05 01:03:43;;;;;;;5.53;2.93;;;18.30;1.00;;;;;;5008230;28;20424;-73
2022/07/05 01:06:11;;;;;;;4.80;2.80;;;17.90;1.00;;;;;;5008928;28;20456;-72
2022/07/05 01:08:42;;;;;;;4.10;2.70;;;17.90;1.00;;;;;;4987805;28;20612;-72
2022/07/05 01:11:09;;;;;;;4.17;2.53;;;17.90;1.00;;;;;;5008327;28;20970;-72
2022/07/05 01:13:36;;;;;;;7.47;2.63;;;18.00;1.00;;;;;;5009179;28;20417;-73
2022/07/05 01:16:02;;;;;;;6.03;2.67;;;18.10;1.00;;;;;;5004498;28;20461;-73
2022/07/05 01:18:28;;;;;;;9.83;3.00;;;18.10;1.00;;;;;;5008921;28;20487;-72
2022/07/05 01:20:55;;;;;;;2.50;2.30;;;18.10;1.00;;;;;;5011669;28;20181;-72
2022/07/05 01:23:21;;;;;;;5.77;2.67;;;18.10;1.00;;;;;;5008684;28;20507;-73
2022/07/05 01:25:47;;;;;;;10.13;2.83;;;17.90;1.00;;;;;;5008939;28;21079;-72
2022/07/05 01:28:13;;;;;;;2.70;2.27;;;17.90;1.00;;;;;;5022318;28;20201;-72
2022/07/05 01:30:40;;;;;;;3.80;2.53;;;17.80;1.00;;;;;;5017658;28;20445;-73
2022/07/05 01:33:07;;;;;;;7.47;3.00;;;17.60;1.00;;;;;;5006827;28;20427;-73
2022/07/05 01:35:34;;;;;;;5.97;2.57;;;17.60;1.00;;;;;;5005975;28;20615;-73
2022/07/05 01:38:00;;;;;;;4.23;2.40;;;17.50;1.00;;;;;;4984827;28;20445;-73
2022/07/05 01:40:25;;;;;;;3.70;2.50;;;17.50;1.00;;;;;;5008403;28;20954;-73
2022/07/05 01:42:51;;;;;;;3.40;2.60;;;17.50;1.00;;;;;;5006805;28;20283;-73
2022/07/05 01:48:05;;;;;;;4.27;2.50;;;17.40;1.00;;;;;;5006282;28;20572;-73
2022/07/05 01:50:36;;;;;;;4.70;2.50;;;17.40;1.00;;;;;;4990273;28;20429;-73
2022/07/05 01:53:03;;;;;;;3.57;2.57;;;17.50;1.00;;;;;;5006540;28;20441;-72
2022/07/05 01:55:29;;;;;;;4.27;2.53;;;17.40;1.00;;;;;;5008207;28;20437;-73
2022/07/05 01:57:54;;;;;;;5.00;2.80;;;17.30;1.00;;;;;;5013225;28;20452;-73
2022/07/05 02:00:20;;;;;;;8.60;2.80;;;17.40;1.00;;;;;;5004191;28;20488;-73
2022/07/05 02:02:47;;;;;;;3.33;2.50;;;17.40;1.00;;;;;;5007408;28;20651;-73
2022/07/05 02:05:12;;;;;;;4.43;2.43;;;17.50;1.00;;;;;;5010522;28;20210;-73
2022/07/05 02:07:47;;;;;;;7.03;2.77;;;17.50;1.00;;;;;;5010295;28;20472;-73
2022/07/05 02:10:13;;;;;;;4.97;3.00;;;17.40;1.00;;;;;;5011664;28;20253;-73
2022/07/05 02:12:38;;;;;;;3.87;2.80;;;17.40;1.00;;;;;;5011389;28;20500;-73
2022/07/05 02:15:04;;;;;;;4.17;2.53;;;17.30;1.00;;;;;;5010294;28;20258;-73
2022/07/05 02:17:30;;;;;;;3.30;2.77;;;17.20;1.00;;;;;;5010883;28;20277;-73
2022/07/05 02:19:55;;;;;;;3.37;2.63;;;17.10;1.00;;;;;;5010319;28;20447;-72
2022/07/05 02:22:21;;;;;;;4.53;2.60;;;17.10;1.00;;;;;;5010925;28;20175;-73
2022/07/05 02:24:46;;;;;;;3.40;2.80;;;17.00;1.00;;;;;;5012105;28;20311;-73
2022/07/05 02:27:12;;;;;;;7.70;2.80;;;17.00;1.00;;;;;;5015978;28;20213;-73
2022/07/05 02:29:37;;;;;;;5.07;2.53;;;17.00;1.00;;;;;;5031946;28;20658;-73
2022/07/05 02:32:03;;;;;;;3.40;2.60;;;17.00;1.00;;;;;;5011863;28;20189;-74
2022/07/05 02:34:29;;;;;;;4.33;2.47;;;16.90;1.00;;;;;;5012944;28;20245;-72
2022/07/05 02:36:54;;;;;;;4.37;2.87;;;16.90;1.00;;;;;;5012941;28;20210;-73
2022/07/05 02:39:20;;;;;;;3.50;2.53;;;16.80;1.00;;;;;;5013898;28;20186;-72
2022/07/05 02:41:45;;;;;;;5.00;2.70;;;16.80;1.00;;;;;;5011228;28;20545;-73
2022/07/05 02:44:11;;;;;;;3.70;2.53;;;16.90;1.00;;;;;;5011121;28;20178;-73
2022/07/05 02:46:38;;;;;;;4.00;2.43;;;16.70;1.00;;;;;;4993092;28;20584;-72
2022/07/05 02:49:03;;;;;;;5.63;2.90;;;16.70;1.00;;;;;;5010593;28;20289;-73
2022/07/05 02:51:29;;;;;;;3.80;2.90;;;16.60;1.00;;;;;;5009016;28;20590;-73
2022/07/05 02:53:54;;;;;;;5.00;2.83;;;16.60;1.00;;;;;;5010598;28;20312;-73
2022/07/05 02:56:20;;;;;;;3.50;3.00;;;16.50;1.00;;;;;;4992613;28;20198;-73
2022/07/05 02:58:45;;;;;;;3.10;2.77;;;16.40;1.00;;;;;;5028830;28;20319;-72
2022/07/05 03:01:11;;;;;;;3.60;2.50;;;16.30;1.00;;;;;;5021662;28;20417;-73
2022/07/05 03:03:36;;;;;;;3.63;2.60;;;16.20;1.00;;;;;;5009348;28;20183;-73
2022/07/05 03:06:02;;;;;;;4.80;2.67;;;16.10;1.00;;;;;;4990563;28;20551;-72
2022/07/05 03:08:28;;;;;;;2.77;2.47;;;16.10;1.00;;;;;;4991010;28;20214;-73
2022/07/05 03:10:53;;;;;;;2.60;2.40;;;16.00;1.00;;;;;;5010500;28;20632;-73
2022/07/05 03:13:19;;;;;;;4.13;2.67;;;16.00;1.00;;;;;;5009505;28;20182;-73
2022/07/05 03:15:44;;;;;;;5.67;3.00;;;16.00;1.00;;;;;;5008681;28;20202;-73
2022/07/05 03:18:10;;;;;;;5.70;2.80;;;15.80;1.00;;;;;;5009466;28;20202;-73
2022/07/05 03:20:35;;;;;;;3.80;2.47;;;15.80;1.00;;;;;;5008383;28;20202;-73
2022/07/05 03:23:01;;;;;;;4.83;2.70;;;15.80;1.00;;;;;;4991706;28;20186;-73
2022/07/05 03:25:27;;;;;;;2.60;2.40;;;15.80;1.00;;;;;;5010922;28;20357;-73
2022/07/05 03:27:52;;;;;;;3.37;2.67;;;15.80;1.00;;;;;;5016867;28;20217;-73
2022/07/05 03:30:18;;;;;;;3.73;2.57;;;15.80;1.00;;;;;;5024481;28;20418;-73
2022/07/05 03:32:43;;;;;;;3.20;2.67;;;15.70;1.00;;;;;;5006401;28;20177;-73
2022/07/05 03:35:09;;;;;;;3.60;3.00;;;15.70;1.00;;;;;;4990875;28;20275;-73
2022/07/05 03:37:35;;;;;;;4.60;2.63;;;15.80;1.00;;;;;;5008904;28;20249;-73
2022/07/05 03:40:01;;;;;;;9.33;2.73;;;15.80;1.00;;;;;;5009567;28;20189;-73
2022/07/05 03:42:26;;;;;;;4.20;3.10;;;15.80;1.00;;;;;;4990687;28;20179;-73
2022/07/05 03:44:52;;;;;;;4.50;2.60;;;15.70;1.00;;;;;;5009753;28;20186;-73
2022/07/05 03:47:17;;;;;;;3.43;2.63;;;15.70;1.00;;;;;;5008207;28;20198;-73
2022/07/05 03:49:43;;;;;;;5.43;2.37;;;16.10;1.00;;;;;;5009150;28;20175;-73
2022/07/05 03:52:08;;;;;;;3.57;2.70;;;15.80;1.00;;;;;;4989927;28;20273;-72
2022/07/05 03:54:34;;;;;;;2.70;2.50;;;15.80;1.00;;;;;;4992054;28;20196;-74
2022/07/05 03:56:59;;;;;;;3.67;2.70;;;15.80;1.00;;;;;;5011389;28;20202;-73
2022/07/05 03:59:24;;;;;;;6.00;2.70;;;15.70;1.00;;;;;;5019052;28;20178;-73
2022/07/05 04:01:50;;;;;;;2.73;2.47;;;15.80;1.00;;;;;;5008250;28;20190;-73
2022/07/05 04:04:15;;;;;;;10.20;2.90;;;15.80;1.00;;;;;;5009048;28;20266;-73
2022/07/05 04:06:41;;;;;;;4.67;2.60;;;15.80;1.00;;;;;;5006911;28;20207;-73
2022/07/05 04:09:07;;;;;;;4.63;3.00;;;15.70;1.00;;;;;;5007916;28;20260;-73
2022/07/05 04:11:32;;;;;;;5.27;2.70;;;15.80;1.00;;;;;;5008292;28;20174;-73
2022/07/05 04:13:58;;;;;;;4.93;2.83;;;15.80;1.00;;;;;;5009782;28;20174;-73
2022/07/05 04:16:23;;;;;;;3.70;2.83;;;15.90;1.00;;;;;;5008130;28;20202;-73
2022/07/05 04:18:49;;;;;;;9.50;2.70;;;15.90;1.00;;;;;;4990767;28;20764;-73
2022/07/05 04:21:14;;;;;;;4.10;2.70;;;15.90;1.00;;;;;;5007442;28;20735;-73
2022/07/05 04:23:40;;;;;;;8.20;2.97;;;16.00;1.00;;;;;;5009189;28;20174;-73
2022/07/05 04:26:05;;;;;;;6.33;2.80;;;16.10;1.00;;;;;;5008230;28;20636;-73
2022/07/05 04:28:31;;;;;;;4.67;3.20;;;16.20;1.00;;;;;;5025464;28;20629;-74
2022/07/05 04:30:57;;;;;;;5.93;2.80;;;16.30;1.00;;;;;;4990222;28;20323;-73
2022/07/05 04:33:23;;;;;;;4.23;2.73;;;16.40;1.00;;;;;;4989212;28;20638;-72
2022/07/05 04:35:49;;;;;;;3.10;2.77;;;16.50;1.00;;;;;;5007453;28;20529;-73
2022/07/05 04:38:14;;;;;;;4.77;3.00;;;16.50;1.00;;;;;;5002131;28;20915;-73
2022/07/05 04:40:40;;;;;;;5.27;2.73;;;16.60;1.00;;;;;;5009096;28;20342;-74
2022/07/05 04:43:06;;;;;;;3.07;2.77;;;16.70;1.00;;;;;;5008586;28;20233;-73
2022/07/05 04:45:32;;;;;;;2.87;2.57;;;16.70;1.00;;;;;;5009365;28;20441;-73
2022/07/05 04:47:58;;;;;;;4.47;3.00;;;16.70;1.00;;;;;;5006823;28;20449;-73
2022/07/05 04:50:24;;;;;;;4.33;3.00;;;16.80;1.00;;;;;;5007989;28;20476;-73
2022/07/05 04:52:49;;;;;;;3.37;3.00;;;16.90;1.00;;;;;;5007961;28;20794;-73
2022/07/05 04:55:15;;;;;;;4.07;3.10;;;17.00;1.00;;;;;;5009181;28;20674;-73
2022/07/05 04:57:41;;;;;;;4.23;3.20;;;17.00;1.00;;;;;;5015621;28;20188;-73
2022/07/05 05:00:11;;;;;;;5.00;3.23;;;17.10;1.00;;;;;;5009327;28;20192;-74
2022/07/05 05:02:37;;;;;;;7.30;2.90;;;17.20;1.00;;;;;;5005426;28;20449;-73
2022/07/05 05:05:03;;;;;;;3.80;3.37;;;17.40;1.00;;;;;;5008063;28;20421;-73
2022/07/05 05:07:29;;;;;;;4.37;3.00;;;17.40;1.00;;;;;;5008627;28;20217;-73
2022/07/05 05:09:55;;;;;;;4.10;3.03;;;17.50;1.00;;;;;;5008625;28;20257;-73
2022/07/05 05:12:21;;;;;;;5.70;3.63;;;17.50;1.00;;;;;;4990445;28;20174;-74
2022/07/05 05:14:46;;;;;;;5.07;3.17;;;17.60;1.00;;;;;;5008874;28;20410;-73
2022/07/05 05:17:12;;;;;;;5.53;3.10;;;17.60;1.00;;;;;;5007823;28;20201;-74
2022/07/05 05:19:37;;;;;;;10.93;3.63;;;17.70;1.00;;;;;;5007430;28;20190;-73
2022/07/05 05:22:03;;;;;;;6.20;3.40;;;17.80;1.00;;;;;;5008087;28;20266;-73
2022/07/05 05:24:28;;;;;;;6.87;3.80;;;17.90;1.00;;;;;;4999516;28;20195;-73
2022/07/05 05:26:54;;;;;;;6.03;3.90;;;17.90;1.00;;;;;;5007907;28;20205;-73
2022/07/05 05:29:20;;;;;;;7.00;3.70;;;18.00;1.00;;;;;;5022236;28;20201;-73
2022/07/05 05:31:46;;;;;;;5.70;3.83;;;18.00;1.00;;;;;;5006509;28;20182;-73
2022/07/05 05:34:12;;;;;;;6.20;3.40;;;18.10;1.00;;;;;;4988256;28;20437;-73
2022/07/05 05:36:37;;;;;;;7.57;3.73;;;18.20;1.00;;;;;;5003508;28;20389;-73
2022/07/05 05:39:04;;;;;;;4.77;3.70;;;18.40;1.00;;;;;;5005584;28;20178;-73
2022/07/05 05:41:29;;;;;;;8.90;4.40;;;18.40;1.00;;;;;;5004791;28;20198;-73
2022/07/05 05:43:55;;;;;;;5.97;4.03;;;18.40;1.00;;;;;;5003539;28;21648;-73
2022/07/05 05:46:20;;;;;;;4.90;4.10;;;18.60;1.00;;;;;;5002427;28;20208;-73
2022/07/05 05:48:46;;;;;;;6.40;3.90;;;18.60;1.00;;;;;;5004431;28;20217;-73
2022/07/05 05:51:11;;;;;;;6.30;4.00;;;18.70;1.00;;;;;;5013440;28;20291;-72
2022/07/05 05:53:37;;;;;;;4.40;3.50;;;18.90;1.00;;;;;;5023718;28;20224;-73
2022/07/05 05:56:02;;;;;;;8.13;4.40;;;19.40;1.00;;;;;;5009134;28;20202;-73
2022/07/05 05:58:28;;;;;;;4.67;3.40;;;19.10;1.00;;;;;;5010392;28;20182;-73
2022/07/05 06:00:54;;;;;;;5.00;3.63;;;19.10;1.00;;;;;;5007370;28;20621;-72
2022/07/05 06:03:24;;;;;;;10.37;4.00;;;19.20;1.00;;;;;;5006495;28;20182;-72
2022/07/05 06:05:50;;;;;;;6.20;4.43;;;19.20;1.00;;;;;;5005415;28;20680;-73
2022/07/05 06:08:15;;;;;;;4.73;3.80;;;19.20;1.00;;;;;;5007347;28;20547;-72
2022/07/05 06:10:41;;;;;;;6.90;3.43;;;19.30;1.00;;;;;;5008121;28;20197;-73
2022/07/05 06:13:10;;;;;;;5.13;3.50;;;19.40;1.00;;;;;;4990472;28;20273;-72
2022/07/05 06:15:36;;;;;;;5.33;3.50;;;19.50;1.00;;;;;;5007236;28;20202;-72
2022/07/05 06:18:02;;;;;;;5.70;3.20;;;19.60;1.00;;;;;;5010966;28;20420;-72
2022/07/05 06:20:31;;;;;;;5.70;3.00;;;19.60;1.00;;;;;;5015772;28;20512;-72
2022/07/05 06:22:57;;;;;;;4.63;3.27;;;19.70;1.00;;;;;;5007660;28;20424;-72
2022/07/05 06:25:23;;;;;;;5.57;3.17;;;19.80;1.00;;;;;;5006584;28;20800;-73
2022/07/05 06:27:51;;;;;;;7.80;2.93;;;19.90;1.00;;;;;;5018727;28;20467;-72
2022/07/05 06:30:19;;;;;;;4.90;3.10;;;20.00;1.00;;;;;;5013913;28;20265;-72
2022/07/05 06:32:46;;;;;;;6.47;3.10;;;20.10;1.00;;;;;;5005310;28;20445;-73
2022/07/05 06:35:12;;;;;;;8.60;3.13;;;20.20;1.00;;;;;;5006478;28;20959;-72
2022/07/05 06:37:55;;;;;;;4.20;3.07;;;20.20;1.00;;;;;;5007428;28;20437;-72
2022/07/05 06:40:29;;;;;;;3.73;3.00;;;20.30;1.00;;;;;;4990092;28;20433;-73
2022/07/05 06:42:57;;;;;;;4.40;2.80;;;20.30;1.00;;;;;;5007647;28;20792;-72
2022/07/05 06:45:23;;;;;;;4.03;2.50;;;20.40;1.00;;;;;;5007003;28;20636;-72
2022/07/05 06:48:09;;;;;;;5.00;3.57;;;20.40;1.00;;;;;;5007438;28;20783;-72
2022/07/05 06:50:37;;;;;;;3.97;2.40;;;20.50;1.00;;;;;;5009135;28;20432;-73
2022/07/05 06:53:04;;;;;;;7.27;2.70;;;20.60;1.00;;;;;;4993005;28;20417;-72
2022/07/05 06:55:29;;;;;;;8.90;2.67;;;20.80;1.00;;;;;;5010419;28;20540;-72
2022/07/05 06:58:00;;;;;;;5.90;3.33;;;20.90;1.00;;;;;;5020946;28;20879;-72
2022/07/05 07:00:26;;;;;;;5.07;2.83;;;21.00;1.00;;;;;;5010385;28;20186;-72
2022/07/05 07:02:52;;;;;;;3.83;2.60;;;21.10;1.00;;;;;;4991111;28;20448;-73
2022/07/05 07:05:18;;;;;;;6.37;3.60;;;21.20;1.00;;;;;;5009506;28;22186;-72
2022/07/05 07:10:27;;;;;;;5.40;3.00;;;21.60;1.00;;;;;;5008977;28;20184;-73
2022/07/05 07:12:53;;;;;;;4.80;2.60;;;21.80;1.00;;;;;;5010224;28;20412;-72
2022/07/05 07:15:18;;;;;;;9.53;2.60;;;21.90;1.00;;;;;;5010246;28;20194;-73
2022/07/05 07:17:44;;;;;;;6.00;3.20;;;22.10;1.00;;;;;;5009475;28;20243;-72
2022/07/05 07:20:10;;;;;;;7.87;2.60;;;22.20;1.00;;;;;;5009333;28;20192;-72
2022/07/05 07:22:35;;;;;;;6.30;2.80;;;22.20;1.00;;;;;;5009935;28;20176;-72
2022/07/05 07:25:01;;;;;;;6.17;3.10;;;22.50;1.00;;;;;;5002928;28;20228;-72
2022/07/05 07:27:27;;;;;;;4.50;2.60;;;22.50;1.00;;;;;;5018841;28;20197;-72
2022/07/05 07:29:52;;;;;;;6.47;2.63;;;22.70;1.00;;;;;;5003003;28;20182;-73
2022/07/05 07:32:18;;;;;;;6.43;2.67;;;22.80;1.00;;;;;;5006610;28;20182;-73
2022/07/05 07:34:44;;;;;;;8.30;2.60;;;22.90;1.00;;;;;;5007295;28;20194;-73
2022/07/05 07:37:13;;;;;;;3.80;2.50;;;23.00;1.00;;;;;;4990589;28;20511;-73
2022/07/05 07:39:39;;;;;;;6.50;2.60;;;23.20;1.00;;;;;;5010309;28;20202;-73
2022/07/05 07:42:05;;;;;;;2.90;2.10;;;23.40;1.00;;;;;;5010091;28;20875;-73
2022/07/05 07:44:31;;;;;;;7.33;2.40;;;23.70;1.00;;;;;;5018238;28;20953;-73
2022/07/05 07:46:56;;;;;;;4.20;2.70;;;23.90;1.00;;;;;;4992442;28;20433;-73
2022/07/05 07:49:22;;;;;;;4.40;2.50;;;24.20;1.00;;;;;;5008798;28;20279;-73
2022/07/05 07:51:48;;;;;;;3.27;2.40;;;24.00;1.00;;;;;;4990327;28;20171;-73
2022/07/05 07:54:13;;;;;;;5.93;2.30;;;24.10;1.00;;;;;;5010179;28;20194;-73
2022/07/05 07:56:39;;;;;;;5.17;2.43;;;24.40;1.00;;;;;;5011413;28;20577;-73
2022/07/05 07:59:04;;;;;;;12.40;2.80;;;24.70;1.00;;;;;;5023181;28;20200;-73
2022/07/05 08:01:31;;;;;;;12.00;2.50;;;24.90;1.00;;;;;;5008426;28;20522;-73
2022/07/05 08:03:56;;;;;;;3.57;2.47;;;25.00;1.00;;;;;;4991046;28;20185;-73
2022/07/05 08:06:22;;;;;;;3.67;2.43;;;25.20;1.00;;;;;;4990474;28;20460;-73
2022/07/05 08:08:47;;;;;;;4.03;2.37;;;25.40;1.00;;;;;;5006446;28;20209;-73
2022/07/05 08:11:14;;;;;;;6.50;2.67;;;27.10;1.00;;;;;;4992275;28;20498;-73
2022/07/05 08:13:40;;;;;;;5.57;2.63;;;25.50;1.00;;;;;;5010560;28;20205;-73
2022/07/05 08:16:07;;;;;;;6.60;2.60;;;25.70;1.00;;;;;;5008946;28;20506;-73
2022/07/05 08:21:32;;;;;;;5.47;3.03;;;26.10;1.00;;;;;;5008393;28;20472;-73
2022/07/05 08:23:59;;;;;;;7.00;3.00;;;26.40;1.00;;;;;;5007893;28;20178;-72
2022/07/05 08:26:26;;;;;;;9.27;2.57;;;26.40;1.00;;;;;;5009970;28;20451;-73
2022/07/05 08:28:51;;;;;;;7.70;2.80;;;26.50;1.00;;;;;;5011725;28;20514;-73
2022/07/05 08:31:17;;;;;;;4.60;3.00;;;26.80;1.00;;;;;;4996035;28;20425;-73
2022/07/05 08:33:42;;;;;;;5.13;2.83;;;27.00;1.00;;;;;;5008406;28;20197;-73
2022/07/05 08:36:08;;;;;;;7.60;2.77;;;27.00;1.00;;;;;;5006766;28;20212;-73
2022/07/05 08:38:33;;;;;;;8.73;3.07;;;27.00;1.00;;;;;;5007421;28;20181;-73
2022/07/05 08:41:00;;;;;;;6.23;3.40;;;26.90;1.00;;;;;;5008075;28;20170;-73
2022/07/05 08:43:28;;;;;;;4.83;2.90;;;27.00;1.00;;;;;;4991606;28;20178;-73
2022/07/05 08:45:55;;;;;;;4.30;3.03;;;27.10;1.00;;;;;;5008408;28;20210;-73
2022/07/05 08:48:21;;;;;;;7.23;2.43;;;27.30;1.00;;;;;;4990907;28;20198;-73
2022/07/05 08:50:49;;;;;;;7.67;2.93;;;27.60;1.00;;;;;;4990601;28;20433;-73
2022/07/05 08:53:15;;;;;;;6.70;3.07;;;28.00;1.00;;;;;;4990547;28;20170;-73
2022/07/05 08:55:42;;;;;;;5.47;3.23;;;27.90;1.00;;;;;;5008963;28;20207;-73
2022/07/05 08:58:07;;;;;;;8.90;3.20;;;28.00;1.00;;;;;;5021930;28;20177;-73
2022/07/05 09:00:34;;;;;;;3.53;2.87;;;28.30;1.00;;;;;;4999487;28;20174;-73
2022/07/05 09:03:00;;;;;;;6.10;3.00;;;28.80;1.00;;;;;;5006719;28;20264;-73
2022/07/05 09:05:26;;;;;;;3.77;2.67;;;29.10;1.00;;;;;;5008230;28;20194;-73
2022/07/05 09:07:59;;;;;;;6.50;2.83;;;29.40;1.00;;;;;;5008878;28;20205;-73
2022/07/05 09:10:30;;;;;;;3.80;2.80;;;30.00;1.00;;;;;;4990473;28;20210;-74
2022/07/05 09:12:57;;;;;;;5.55;2.97;;;30.70;1.00;;;;;;4989843;28;20613;-74
2022/07/05 09:15:23;;;;;;;4.68;2.80;;;31.80;1.00;;;;;;5009739;28;20252;-73
2022/07/05 09:17:49;;;;;;;6.43;2.72;;;32.60;1.00;;;;;;5007818;28;20177;-74
2022/07/05 09:20:16;;;;;;;3.65;2.15;;;33.40;1.00;;;;;;5005516;28;20174;-74
2022/07/05 09:22:53;;;;;;;9.35;2.30;;;34.30;1.00;;;;;;5007515;28;20257;-74
2022/07/05 09:25:23;;;;;;;5.30;2.40;;;34.70;1.00;;;;;;5008481;28;20193;-74
2022/07/05 09:27:59;;;;;;;7.32;2.38;;;34.60;1.00;;;;;;5019293;28;20208;-74
2022/07/05 09:30:37;;;;;;;4.55;2.30;;;34.90;1.00;;;;;;5017439;28;20181;-74
2022/07/05 09:33:14;;;;;;;4.50;2.53;;;35.50;1.00;;;;;;5002600;28;20181;-74
2022/07/05 09:35:43;;;;;;;3.63;1.90;;;36.40;1.00;;;;;;5005397;28;20214;-74
2022/07/05 09:38:19;;;;;;;5.93;2.10;;;36.90;1.00;;;;;;5008960;28;20181;-75
2022/07/05 09:40:52;;;;;;;7.07;2.40;;;36.90;1.00;;;;;;5008540;28;20201;-75
2022/07/05 09:43:24;;;;;;;5.13;2.17;;;37.40;1.00;;;;;;5015962;28;20316;-74
2022/07/05 09:45:54;;;;;;;4.55;2.13;;;38.00;1.00;;;;;;5017450;28;20216;-75
2022/07/05 09:48:20;;;;;;;4.65;1.80;;;38.20;1.00;;;;;;5007263;28;20197;-75
2022/07/05 09:50:48;;;;;;;4.20;1.80;;;38.70;1.00;;;;;;4992761;28;20331;-74
2022/07/05 09:53:13;;;;;;;5.07;1.98;;;39.50;1.00;;;;;;5017264;28;20178;-75
2022/07/05 09:55:40;;;;;;;3.08;2.00;;;;;;;;;;4989526;28;20202;-74
2022/07/05 09:58:06;;;;;;;6.55;2.10;;;39.70;1.00;;;;;;5021376;28;20469;-74
2022/07/05 10:00:32;;;;;;;4.63;2.30;;;38.90;1.00;;;;;;5005083;28;20201;-74
2022/07/05 10:03:01;;;;;;;6.15;2.08;;;38.10;1.00;;;;;;5005654;28;20182;-74
2022/07/05 10:05:30;;;;;;;4.05;1.80;;;38.30;1.00;;;;;;5006519;28;20194;-77
2022/07/05 10:07:57;;;;;;;5.05;1.85;;;39.00;1.00;;;;;;5008350;28;20198;-76
2022/07/05 10:10:25;;;;;;;3.10;1.40;;;39.00;1.00;;;;;;5007529;28;20182;-73
2022/07/05 10:12:52;;;;;;;4.30;1.40;;;38.90;1.00;;;;;;5008137;28;20182;-74
2022/07/05 10:15:22;;;;;;;3.53;1.60;;;38.20;1.00;;;;;;4989873;28;20252;-74
2022/07/05 10:17:59;;;;;;;4.47;1.77;;;37.50;1.00;;;;;;5007323;28;20265;-74
2022/07/05 10:20:42;;;;;;;8.57;1.70;;;38.20;1.00;;;;;;5016072;28;20174;-74
2022/07/05 10:23:10;;;;;;;3.53;1.77;;;38.00;1.00;;;;;;4990449;28;20217;-74
2022/07/05 10:25:37;;;;;;;3.60;1.70;;;38.30;1.00;;;;;;5011673;28;20280;-74
2022/07/05 10:28:04;;;;;;;4.55;1.55;;;39.10;1.00;;;;;;5023179;28;20205;-75
2022/07/05 10:30:31;;;;;;;2.38;1.55;;;39.70;1.00;;;;;;5002218;28;20178;-74
2022/07/05 10:32:56;;;;;;;4.47;1.60;;;40.60;1.00;;;;;;5010433;28;20166;-74
2022/07/05 10:35:23;;;;;;;4.70;1.77;;;40.90;1.00;;;;;;5011873;28;20217;-75
2022/07/05 10:37:49;;;;;;;4.93;1.50;;;41.00;1.00;;;;;;5006205;28;20529;-75
2022/07/05 10:40:16;;;;;;;3.95;1.70;;;39.80;1.00;;;;;;5011672;28;20205;-74
2022/07/05 10:43:02;;;;;;;2.90;1.65;;;39.90;1.00;;;;;;5010349;28;20173;-72
2022/07/05 10:45:36;;;;;;;3.40;1.80;;;39.70;1.00;;;;;;5005419;28;20197;-75
2022/07/05 10:48:16;;;;;;;3.40;1.88;;;40.40;1.00;;;;;;5009655;28;20194;-75
2022/07/05 10:51:16;;;;;;;2.95;1.65;;;41.40;1.00;;;;;;5010743;28;20174;-74
2022/07/05 10:53:41;;;;;;;3.95;1.88;;;42.40;1.00;;;;;;5009872;28;20659;-76
2022/07/05 10:56:07;;;;;;;7.05;1.80;;;41.70;1.00;;;;;;5008939;28;20189;-75
2022/07/05 10:58:43;;;;;;;3.25;1.90;;;40.80;1.00;;;;;;5018801;28;20514;-75
2022/07/05 11:01:12;;;;;;;5.22;1.98;;;41.00;1.00;;;;;;5009238;28;20652;-74
2022/07/05 11:03:40;;;;;;;3.83;1.80;;;40.60;1.00;;;;;;5009413;28;20193;-76
2022/07/05 11:06:07;;;;;;;5.45;2.17;;;38.50;1.00;;;;;;4993058;28;20714;-75
2022/07/05 11:09:05;;;;;;;4.20;1.80;;;38.60;1.00;;;;;;5005306;28;20261;-75
2022/07/05 11:11:34;;;;;;;4.60;2.00;;;39.10;1.00;;;;;;5006603;28;20171;-75
2022/07/05 11:14:25;;;;;;;5.90;1.90;;;39.70;1.00;;;;;;4999739;28;20205;-75
2022/07/05 11:17:09;;;;;;;5.22;2.00;;;40.50;1.00;;;;;;5012488;28;20190;-75
2022/07/05 11:19:55;;;;;;;4.03;2.00;;;41.00;1.00;;;;;;5008015;28;20613;-75
2022/07/05 11:22:20;;;;;;;4.32;1.80;;;41.90;1.00;;;;;;5004800;28;20256;-77
2022/07/05 11:24:46;;;;;;;5.18;1.92;;;42.60;1.00;;;;;;5009358;28;20787;-75
2022/07/05 11:27:12;;;;;;;3.08;1.70;;;42.60;1.00;;;;;;5014307;28;20241;-75
2022/07/05 11:29:51;;;;;;;6.30;1.83;;;42.60;1.00;;;;;;5011551;28;20553;-75
2022/07/05 11:32:30;;;;;;;6.32;1.83;;;43.00;1.00;;;;;;5008532;28;20182;-76
2022/07/05 11:35:18;;;;;;;2.47;1.70;;;42.70;1.00;;;;;;5011657;28;20694;-76
2022/07/05 11:38:00;;;;;;;3.83;2.05;;;42.40;1.00;;;;;;5010097;28;20178;-75
2022/07/05 11:40:29;;;;;;;4.60;1.90;;;42.80;1.00;;;;;;5008438;28;20189;-76
2022/07/05 11:42:54;;;;;;;6.25;1.92;;;43.20;1.00;;;;;;4999733;28;20540;-75
2022/07/05 11:45:20;;;;;;;4.10;2.05;;;43.40;1.00;;;;;;4991032;28;20209;-76
2022/07/05 11:47:45;;;;;;;7.43;3.67;;;41.20;1.00;;;;;;5008045;28;20206;-76
2022/07/05 11:50:12;;;;;;;6.10;2.20;;;38.30;1.00;;;;;;4993416;28;20257;-75
2022/07/05 11:52:38;;;;;;;5.63;2.10;;;36.80;1.00;;;;;;5008302;28;20191;-75
2022/07/05 11:55:09;;;;;;;3.45;2.10;;;36.70;1.00;;;;;;5012874;28;20229;-76
2022/07/05 11:57:35;;;;;;;3.50;1.95;;;36.70;1.00;;;;;;5016661;28;20173;-75
2022/07/05 12:00:02;;;;;;;3.65;1.77;;;38.30;1.00;;;;;;5025231;28;20178;-76
2022/07/05 12:02:28;;;;;;;2.70;1.70;;;39.50;1.00;;;;;;5006822;28;20185;-75
2022/07/05 12:04:55;;;;;;;4.25;1.67;;;40.20;1.00;;;;;;5009337;28;20174;-75
2022/07/05 12:07:32;;;;;;;3.03;1.63;;;41.40;1.00;;;;;;5008848;28;20181;-76
2022/07/05 12:12:43;;;;;;;5.55;1.90;;;43.50;1.00;;;;;;5009539;28;20651;-76
2022/07/05 12:15:19;;;;;;;2.38;1.70;;;43.80;1.00;;;;;;5010292;28;20257;-75
2022/07/05 12:17:47;;;;;;;4.32;1.83;;;44.20;1.00;;;;;;5008308;28;20608;-76
2022/07/05 12:20:15;;;;;;;2.38;1.50;;;44.70;1.00;;;;;;5007375;28;20241;-76
2022/07/05 12:22:42;;;;;;;6.45;1.70;;;44.20;1.00;;;;;;5008837;28;20180;-76
2022/07/05 12:25:15;;;;;;;7.28;1.80;;;44.60;1.00;;;;;;5009884;28;20182;-77
2022/07/05 12:27:42;;;;;;;3.15;1.60;;;45.00;1.00;;;;;;5018864;28;20208;-76
2022/07/05 12:30:10;;;;;;;3.42;1.70;;;45.40;1.00;;;;;;5015909;28;20170;-76
2022/07/05 12:32:56;;;;;;;3.30;1.50;;;44.50;1.00;;;;;;5008009;28;20209;-77
2022/07/05 12:35:38;;;;;;;11.80;2.03;;;43.90;1.00;;;;;;4991006;28;20224;-76
2022/07/05 12:38:05;;;;;;;3.58;1.52;;;43.90;1.00;;;;;;5001415;28;20181;-76
2022/07/05 12:40:31;;;;;;;3.75;1.70;;;44.00;1.00;;;;;;5009392;28;20193;-76
2022/07/05 12:43:02;;;;;;;2.10;1.50;;;43.40;1.00;;;;;;5009812;28;20181;-76
2022/07/05 12:45:28;;;;;;;3.20;1.67;;;43.50;1.00;;;;;;5008458;28;20206;-76
2022/07/05 12:47:55;;;;;;;3.47;1.80;;;44.00;1.00;;;;;;5006543;28;20746;-76
2022/07/05 12:50:41;;;;;;;3.60;1.70;;;45.10;1.00;;;;;;5007025;28;20224;-76
2022/07/05 12:58:51;;;;;;;3.38;1.70;;;38.50;1.00;;;;;;5012547;28;20200;-75
2022/07/05 13:01:21;;;;;;;4.05;1.75;;;38.60;1.00;;;;;;5014546;28;20264;-75
2022/07/05 13:04:01;;;;;;;4.13;2.03;;;37.80;1.00;;;;;;5007550;28;20289;-75
2022/07/05 13:07:02;;;;;;;7.60;1.90;;;36.00;1.00;;;;;;5008094;28;20237;-75
2022/07/05 13:09:28;;;;;;;3.17;1.73;;;36.00;1.00;;;;;;5004736;28;20208;-75
2022/07/05 13:12:15;;;;;;;3.35;1.70;;;37.70;1.00;;;;;;5008184;28;20182;-75
2022/07/05 13:14:46;;;;;;;6.00;1.90;;;37.90;1.00;;;;;;5009394;28;20169;-75
2022/07/05 13:17:13;;;;;;;14.95;2.08;;;36.70;1.00;;;;;;5004714;28;20252;-75